Time;durP1;ratioP1;P1;durP2;ratioP2;P2;SDS_P1;SDS_P2;PMS_P1;PMS_P2;Temp;Humidity;BMP_temperature;BMP_pressure;BME280_temperature;BME280_humidity;BME280_pressure;Samples;Min_cycle;Max_cycle;Signal;HPM_P1;HPM_P2
2021/09/03 00:02:10;;;;;;;93.05;6.95;;;;;;;23.73;31.67;97966.22;5074409;28;20136;-78
2021/09/03 00:04:36;;;;;;;43.78;6.22;;;;;;;23.67;32.24;97964.50;5024520;28;20128;-78
2021/09/03 00:07:02;;;;;;;44.38;5.35;;;;;;;23.57;32.71;97953.31;5041360;28;20064;-78
2021/09/03 00:09:28;;;;;;;35.55;5.00;;;;;;;23.46;33.65;97955.81;5057605;28;20575;-78
2021/09/03 00:11:54;;;;;;;22.15;4.88;;;;;;;23.34;33.90;97957.75;5057627;28;20063;-79
2021/09/03 00:14:20;;;;;;;36.45;5.18;;;;;;;23.17;34.30;97945.88;5073950;28;20045;-78
2021/09/03 00:16:46;;;;;;;32.35;5.30;;;;;;;23.02;34.82;97940.94;5074040;28;20499;-79
2021/09/03 00:19:12;;;;;;;44.65;6.07;;;;;;;22.87;35.00;97949.56;5074268;28;20048;-79
2021/09/03 00:21:38;;;;;;;36.35;5.75;;;;;;;22.72;36.05;97935.56;5074525;28;20123;-78
2021/09/03 00:24:04;;;;;;;38.63;6.43;;;;;;;22.38;36.47;97927.09;5025097;28;20044;-80
2021/09/03 00:26:30;;;;;;;47.53;5.72;;;;;;;22.37;37.01;97938.19;5058068;28;20036;-78
2021/09/03 00:28:56;;;;;;;28.73;5.53;;;;;;;22.22;37.18;97930.47;5041984;28;20052;-78
2021/09/03 00:31:22;;;;;;;47.28;7.55;;;;;;;22.16;37.57;97936.84;5059623;28;20056;-77
2021/09/03 00:33:48;;;;;;;42.25;6.60;;;;;;;22.07;37.21;97942.56;5028178;28;20075;-78
2021/09/03 00:36:14;;;;;;;36.05;5.68;;;;;;;22.07;37.49;97934.41;5032676;28;20044;-78
2021/09/03 00:38:40;;;;;;;35.70;5.47;;;;;;;21.80;38.08;97922.22;5046044;28;20411;-80
2021/09/03 00:41:06;;;;;;;33.42;5.53;;;;;;;21.81;38.15;97942.91;5025925;28;20051;-78
2021/09/03 00:43:32;;;;;;;24.55;4.75;;;;;;;21.70;38.58;97932.81;5024522;28;20052;-79
2021/09/03 00:45:58;;;;;;;29.58;6.65;;;;;;;21.71;38.78;97934.50;5061627;28;20055;-78
2021/09/03 00:48:24;;;;;;;31.65;5.15;;;;;;;21.64;38.56;97917.44;5028614;28;20055;-79
2021/09/03 00:50:51;;;;;;;30.17;5.82;;;;;;;21.66;38.81;97923.44;5074166;28;20523;-78
2021/09/03 00:53:17;;;;;;;28.10;5.78;;;;;;;21.61;38.83;97907.81;5057372;28;20051;-76
2021/09/03 00:55:43;;;;;;;41.20;5.93;;;;;;;21.61;38.61;97909.72;5039839;28;20123;-76
2021/09/03 00:58:09;;;;;;;26.42;5.20;;;;;;;21.61;38.89;97907.81;5040570;28;20578;-76
2021/09/03 01:00:35;;;;;;;32.40;6.22;;;;;;;21.39;40.13;97893.03;5040159;28;20127;-77
2021/09/03 01:03:01;;;;;;;29.75;5.65;;;;;;;21.41;40.93;97891.75;5056604;28;20144;-76
2021/09/03 01:05:27;;;;;;;29.17;5.20;;;;;;;21.34;41.23;97896.44;5040046;28;20044;-77
2021/09/03 01:07:53;;;;;;;30.23;4.90;;;;;;;21.31;41.40;97891.44;5040020;28;20154;-76
2021/09/03 01:10:20;;;;;;;48.63;5.68;;;;;;;21.21;41.88;97896.56;5023487;28;20049;-77
2021/09/03 01:12:47;;;;;;;27.42;6.75;;;;;;;21.06;42.29;97897.78;5039931;28;20040;-77
2021/09/03 01:15:13;;;;;;;21.02;4.55;;;;;;;20.94;43.00;97888.69;5039812;28;20507;-77
2021/09/03 01:17:39;;;;;;;27.48;5.80;;;;;;;20.84;43.79;97881.06;5039766;28;20135;-77
2021/09/03 01:20:07;;;;;;;29.13;5.78;;;;;;;20.87;42.98;97877.06;5072868;28;20051;-77
2021/09/03 01:22:33;;;;;;;36.60;6.30;;;;;;;20.91;42.89;97863.88;5040013;28;20499;-77
2021/09/03 01:24:59;;;;;;;19.92;4.68;;;;;;;20.86;43.47;97861.81;5006549;28;20047;-76
2021/09/03 01:27:25;;;;;;;23.70;5.40;;;;;;;20.95;43.04;97863.22;5056169;28;20056;-77
2021/09/03 01:29:52;;;;;;;28.30;5.38;;;;;;;20.90;43.02;97851.34;5039711;28;20056;-78
2021/09/03 01:32:18;;;;;;;32.25;6.57;;;;;;;20.92;43.06;97860.94;5056238;28;20448;-78
2021/09/03 01:34:44;;;;;;;23.70;5.15;;;;;;;20.99;42.94;97860.88;5039153;28;20043;-77
2021/09/03 01:37:09;;;;;;;26.65;4.95;;;;;;;20.94;43.17;97850.66;5055994;28;20040;-77
2021/09/03 01:39:35;;;;;;;39.33;4.82;;;;;;;20.97;43.71;97869.22;5072334;28;20040;-78
2021/09/03 01:42:02;;;;;;;28.30;5.00;;;;;;;20.95;43.78;97865.94;5006564;28;20040;-78
2021/09/03 01:44:28;;;;;;;24.35;5.15;;;;;;;20.99;43.49;97872.56;5039552;28;20059;-78
2021/09/03 01:46:54;;;;;;;30.45;5.75;;;;;;;20.96;43.58;97873.00;5006707;28;20044;-79
2021/09/03 01:49:20;;;;;;;27.85;5.10;;;;;;;20.96;43.84;97867.59;5039628;28;20048;-78
2021/09/03 01:51:46;;;;;;;29.70;5.32;;;;;;;21.00;44.21;97884.25;5056056;28;20047;-78
2021/09/03 01:54:11;;;;;;;21.15;5.03;;;;;;;20.96;44.49;97889.31;5038890;28;20048;-78
2021/09/03 01:56:37;;;;;;;26.20;5.72;;;;;;;20.85;44.87;97857.47;5038526;28;20147;-78
2021/09/03 01:59:04;;;;;;;22.38;4.78;;;;;;;20.82;45.54;97860.63;5022841;28;20040;-77
2021/09/03 02:01:30;;;;;;;21.63;5.18;;;;;;;20.79;45.93;97855.63;5006167;28;20075;-78
2021/09/03 02:03:57;;;;;;;24.60;5.20;;;;;;;20.66;46.84;97844.91;5072024;28;20457;-78
2021/09/03 02:06:23;;;;;;;25.27;5.95;;;;;;;20.57;46.76;97826.22;5071524;28;20056;-78
2021/09/03 02:08:49;;;;;;;24.05;5.45;;;;;;;20.63;46.90;97829.06;5005735;28;20117;-78
2021/09/03 02:11:15;;;;;;;33.70;7.03;;;;;;;20.52;47.40;97811.63;5039239;28;20123;-78
2021/09/03 02:13:41;;;;;;;31.40;5.28;;;;;;;20.55;47.19;97798.44;5038998;28;20048;-79
2021/09/03 02:16:07;;;;;;;24.23;5.75;;;;;;;20.54;47.06;97788.66;5022036;28;20051;-77
2021/09/03 02:18:33;;;;;;;30.48;5.28;;;;;;;20.43;47.96;97785.81;5038676;28;20372;-78
2021/09/03 02:20:59;;;;;;;39.03;6.20;;;;;;;20.28;48.33;97761.75;5021983;28;20123;-78
2021/09/03 02:23:25;;;;;;;28.10;5.78;;;;;;;20.18;49.40;97775.78;5038254;28;20569;-77
2021/09/03 02:25:51;;;;;;;32.10;7.88;;;;;;;20.25;48.91;97744.00;5038561;28;20052;-79
2021/09/03 02:28:18;;;;;;;25.73;5.70;;;;;;;20.08;49.44;97746.47;5038159;28;20036;-77
2021/09/03 02:30:44;;;;;;;27.55;5.30;;;;;;;20.03;49.10;97737.34;5054736;28;20044;-77
2021/09/03 02:33:12;;;;;;;26.48;5.85;;;;;;;20.11;49.55;97737.88;5005997;28;20133;-79
2021/09/03 02:35:38;;;;;;;23.88;5.82;;;;;;;20.10;49.16;97716.41;5038114;28;20136;-78
2021/09/03 02:38:04;;;;;;;22.45;5.72;;;;;;;20.16;48.77;97720.09;5038124;28;20044;-79
2021/09/03 02:40:30;;;;;;;33.83;6.50;;;;;;;20.16;48.81;97696.53;5054731;28;20070;-78
2021/09/03 02:42:56;;;;;;;27.35;6.10;;;;;;;20.12;48.46;97677.16;5038157;28;20042;-78
2021/09/03 02:45:22;;;;;;;29.35;5.60;;;;;;;20.20;48.69;97677.88;5054679;28;20136;-78
2021/09/03 02:47:49;;;;;;;25.25;6.03;;;;;;;20.18;48.53;97658.31;5038847;28;20471;-79
2021/09/03 02:50:15;;;;;;;33.08;6.75;;;;;;;20.10;48.42;97668.41;5071189;28;20053;-80
2021/09/03 02:52:41;;;;;;;26.13;5.43;;;;;;;20.02;48.17;97652.44;5021967;28;20107;-78
2021/09/03 02:55:08;;;;;;;35.95;6.60;;;;;;;20.10;47.63;97651.31;5038410;28;20503;-78
2021/09/03 02:57:34;;;;;;;38.92;5.55;;;;;;;20.23;47.30;97664.72;5054602;28;20063;-79
2021/09/03 03:00:00;;;;;;;31.75;5.88;;;;;;;20.27;46.83;97663.22;5038439;28;20169;-80
2021/09/03 03:02:26;;;;;;;34.53;5.68;;;;;;;20.37;46.29;97678.97;5038386;28;20083;-79
2021/09/03 03:04:52;;;;;;;32.90;6.10;;;;;;;20.30;46.35;97656.50;5038546;28;20068;-80
2021/09/03 03:07:18;;;;;;;38.50;8.13;;;;;;;20.41;45.55;97674.75;5021721;28;20102;-79
2021/09/03 03:09:44;;;;;;;36.08;6.88;;;;;;;20.53;45.22;97664.00;5055190;28;20048;-84
2021/09/03 03:12:11;;;;;;;28.27;5.72;;;;;;;20.62;44.58;97654.50;5022368;28;20055;-81
2021/09/03 03:14:37;;;;;;;29.27;5.93;;;;;;;20.63;44.59;97652.59;5071586;28;20094;-79
2021/09/03 03:17:03;;;;;;;40.10;5.60;;;;;;;20.56;44.93;97655.38;5038506;28;20494;-81
2021/09/03 03:19:29;;;;;;;39.35;6.47;;;;;;;20.59;44.62;97654.94;5041458;28;20527;-79
2021/09/03 03:21:55;;;;;;;34.78;6.18;;;;;;;20.64;44.22;97643.41;5059236;28;20510;-81
2021/09/03 03:24:21;;;;;;;44.00;6.18;;;;;;;20.76;44.10;97649.69;5042456;28;20041;-81
2021/09/03 03:26:47;;;;;;;30.90;6.00;;;;;;;20.76;44.30;97644.28;5026087;28;20048;-81
2021/09/03 03:29:14;;;;;;;35.97;5.93;;;;;;;20.76;44.22;97660.56;5042491;28;20492;-79
2021/09/03 03:31:40;;;;;;;39.58;6.90;;;;;;;20.81;43.88;97653.41;5026303;28;20483;-80
2021/09/03 03:34:06;;;;;;;38.10;6.72;;;;;;;20.85;43.87;97643.72;5058662;28;20044;-76
2021/09/03 03:36:32;;;;;;;49.22;7.22;;;;;;;20.74;44.05;97632.81;5025556;28;20048;-76
2021/09/03 03:38:58;;;;;;;38.38;6.20;;;;;;;20.87;44.07;97651.63;5041832;28;20048;-80
2021/09/03 03:41:24;;;;;;;34.55;6.72;;;;;;;20.98;43.52;97648.13;5041738;28;20127;-77
2021/09/03 03:43:50;;;;;;;40.25;7.35;;;;;;;21.05;42.55;97661.63;5024900;28;20044;-76
2021/09/03 03:46:16;;;;;;;32.83;6.10;;;;;;;21.02;42.23;97649.34;5074720;28;20064;-79
2021/09/03 03:48:42;;;;;;;40.35;6.57;;;;;;;21.10;42.10;97650.91;5058529;28;20089;-78
2021/09/03 03:51:08;;;;;;;37.92;6.75;;;;;;;21.10;41.22;97629.19;5041395;28;20209;-77
2021/09/03 03:53:34;;;;;;;36.00;5.97;;;;;;;21.25;40.83;97645.03;5041233;28;20048;-76
2021/09/03 03:56:00;;;;;;;42.30;8.07;;;;;;;21.33;38.98;97636.59;5041089;28;20499;-77
2021/09/03 03:58:26;;;;;;;46.40;7.50;;;;;;;;;;5074432;28;20072;-80
2021/09/03 04:00:52;;;;;;;45.05;6.70;;;;;;;21.52;38.67;97627.28;5041342;28;20041;-77
2021/09/03 04:03:18;;;;;;;34.17;6.93;;;;;;;21.60;38.59;97625.28;5041420;28;20044;-77
2021/09/03 04:05:44;;;;;;;53.95;6.97;;;;;;;21.69;38.40;97608.38;5041770;28;20047;-79
2021/09/03 04:08:10;;;;;;;35.05;7.07;;;;;;;21.82;37.96;97594.53;5024956;28;20392;-80
2021/09/03 04:10:36;;;;;;;40.67;7.45;;;;;;;21.96;37.81;97616.88;5041749;28;20047;-78
2021/09/03 04:13:02;;;;;;;40.30;5.97;;;;;;;22.07;37.41;97602.41;5074149;28;20032;-74
2021/09/03 04:15:28;;;;;;;39.97;7.40;;;;;;;22.26;36.85;97607.75;5074431;28;20491;-73
2021/09/03 04:17:54;;;;;;;42.63;7.32;;;;;;;22.37;36.26;97617.78;5073596;28;20089;-74
2021/09/03 04:20:21;;;;;;;43.05;7.15;;;;;;;22.57;35.83;97613.81;5007997;28;20491;-76
2021/09/03 04:22:47;;;;;;;37.70;8.07;;;;;;;22.50;35.18;97616.69;5040790;28;20052;-74
2021/09/03 04:25:13;;;;;;;45.22;6.85;;;;;;;22.61;35.17;97623.19;5057287;28;20036;-74
2021/09/03 04:27:41;;;;;;;37.25;7.07;;;;;;;22.62;35.09;97608.50;5040620;28;20044;-74
2021/09/03 04:30:08;;;;;;;44.33;7.78;;;;;;;22.70;35.67;97600.75;5057388;28;20135;-74
2021/09/03 04:32:34;;;;;;;42.58;7.38;;;;;;;22.84;34.40;97590.41;5057376;28;20045;-74
2021/09/03 04:35:00;;;;;;;39.05;6.75;;;;;;;22.92;34.34;97587.31;5040674;28;20049;-76
2021/09/03 04:37:26;;;;;;;35.88;6.57;;;;;;;23.19;33.40;97575.78;5008349;28;20079;-80
2021/09/03 04:39:52;;;;;;;38.53;7.10;;;;;;;23.32;32.74;97574.59;5040893;28;20047;-84
2021/09/03 04:42:18;;;;;;;42.65;6.97;;;;;;;23.38;32.99;97562.72;5007083;28;20076;-80
2021/09/03 04:44:44;;;;;;;36.38;6.95;;;;;;;23.49;32.06;97557.16;5007791;28;20075;-81
2021/09/03 04:47:10;;;;;;;48.42;7.18;;;;;;;23.45;32.34;97553.28;5073735;28;20075;-82
2021/09/03 04:49:37;;;;;;;45.30;8.40;;;;;;;23.60;31.71;97571.78;5041073;28;20036;-82
2021/09/03 04:52:03;;;;;;;39.90;8.02;;;;;;;23.62;31.52;97574.25;5008303;28;20086;-83
2021/09/03 04:54:29;;;;;;;30.42;7.40;;;;;;;23.75;31.60;97576.69;5041175;28;20118;-81
2021/09/03 04:56:55;;;;;;;36.92;7.15;;;;;;;23.65;31.93;97558.22;5056894;28;20492;-80
2021/09/03 04:59:21;;;;;;;31.27;6.55;;;;;;;23.61;31.78;97561.72;5075086;28;20048;-81
2021/09/03 05:01:47;;;;;;;33.20;7.25;;;;;;;23.64;31.56;97551.13;5028723;28;20048;-82
2021/09/03 05:04:28;;;;;;;28.80;7.03;;;;;;;23.75;31.66;97530.31;5032382;28;20388;-82
2021/09/03 05:06:54;;;;;;;39.10;7.63;;;;;;;23.74;31.85;97490.47;5045649;28;20128;-86
2021/09/03 05:09:20;;;;;;;37.40;7.53;;;;;;;23.82;31.54;97490.03;5046431;28;20103;-85
2021/09/03 05:11:47;;;;;;;36.28;7.28;;;;;;;23.81;31.34;97472.00;5029664;28;20487;-85
2021/09/03 05:14:13;;;;;;;49.55;7.90;;;;;;;23.89;31.39;97455.19;5058111;28;20044;-85
2021/09/03 05:16:42;;;;;;;39.00;7.07;;;;;;;24.03;31.08;97479.34;5058531;28;20090;-84
2021/09/03 05:19:08;;;;;;;33.00;7.07;;;;;;;24.14;31.37;97486.59;5076145;28;20407;-85
2021/09/03 05:21:34;;;;;;;38.67;7.35;;;;;;;24.26;30.67;97498.22;5059359;28;20063;-82
2021/09/03 05:24:01;;;;;;;30.92;7.53;;;;;;;24.41;30.53;97495.69;5040474;28;20148;-84
2021/09/03 05:26:26;;;;;;;29.42;6.50;;;;;;;24.65;30.19;97539.91;5024391;28;20048;-81
2021/09/03 05:28:52;;;;;;;29.33;6.50;;;;;;;24.77;29.96;97531.53;5072556;28;20144;-84
2021/09/03 05:31:20;;;;;;;32.63;6.53;;;;;;;24.80;29.99;97547.44;5040420;28;20043;-88
2021/09/03 05:33:46;;;;;;;27.67;6.38;;;;;;;24.79;29.84;97556.72;5043082;28;20040;-81
2021/09/03 05:36:13;;;;;;;27.65;6.78;;;;;;;24.95;29.20;97550.31;5073122;28;20044;-83
2021/09/03 05:38:39;;;;;;;36.88;6.22;;;;;;;24.89;29.59;97551.34;5007323;28;20115;-83
2021/09/03 05:41:05;;;;;;;26.65;6.53;;;;;;;24.99;29.57;97556.09;5057108;28;20518;-84
2021/09/03 05:43:32;;;;;;;28.90;6.15;;;;;;;24.77;29.47;97558.03;5074915;28;20040;-85
2021/09/03 05:45:58;;;;;;;26.60;7.43;;;;;;;24.62;29.44;97550.50;5023513;28;20086;-81
2021/09/03 05:48:24;;;;;;;29.05;7.13;;;;;;;24.50;29.55;97558.03;5056137;28;20048;-85
2021/09/03 05:50:50;;;;;;;30.13;6.78;;;;;;;24.60;29.23;97555.44;5039130;28;20423;-86
2021/09/03 05:53:16;;;;;;;18.63;5.82;;;;;;;24.82;28.30;97549.88;5023075;28;20468;-84
2021/09/03 05:55:43;;;;;;;34.30;6.40;;;;;;;25.01;28.57;97547.59;5005988;28;20041;-81
2021/09/03 05:58:08;;;;;;;23.25;6.75;;;;;;;25.05;27.94;97555.06;5039951;28;20459;-80
2021/09/03 06:00:35;;;;;;;30.13;7.22;;;;;;;25.07;27.86;97554.78;5006503;28;20041;-78
2021/09/03 06:03:01;;;;;;;28.23;6.65;;;;;;;24.98;27.37;97557.19;5022860;28;20044;-81
2021/09/03 06:05:27;;;;;;;16.17;5.78;;;;;;;24.99;26.67;97549.78;5023423;28;20040;-80
2021/09/03 06:07:53;;;;;;;27.63;5.72;;;;;;;24.99;26.41;97522.47;5056491;28;20052;-81
2021/09/03 06:10:19;;;;;;;18.27;5.63;;;;;;;25.04;25.94;97522.50;5026086;28;20392;-81
2021/09/03 06:12:46;;;;;;;25.35;5.55;;;;;;;25.13;25.79;97521.81;5026272;28;20040;-82
2021/09/03 06:15:12;;;;;;;14.93;5.70;;;;;;;25.10;25.88;97532.44;5042112;28;20044;-82
2021/09/03 06:17:39;;;;;;;27.65;6.43;;;;;;;25.08;25.59;97509.94;5025670;28;20121;-82
2021/09/03 06:20:07;;;;;;;17.17;5.88;;;;;;;25.16;25.56;97498.56;5039257;28;20560;-81
2021/09/03 06:22:33;;;;;;;29.10;6.45;;;;;;;25.18;25.37;97482.72;5022787;28;20040;-81
2021/09/03 06:24:59;;;;;;;31.27;6.60;;;;;;;25.31;25.24;97493.22;5038906;28;20093;-81
2021/09/03 06:27:25;;;;;;;17.30;5.80;;;;;;;25.25;25.24;97472.41;5006618;28;20532;-81
2021/09/03 06:29:53;;;;;;;18.15;6.28;;;;;;;25.29;25.14;97461.75;5022311;28;20044;-82
2021/09/03 06:32:19;;;;;;;19.40;5.80;;;;;;;25.21;24.79;97446.66;5055764;28;20062;-81
2021/09/03 06:34:47;;;;;;;21.73;6.88;;;;;;;25.11;24.73;97446.59;5055017;28;20446;-80
2021/09/03 06:37:13;;;;;;;26.23;6.93;;;;;;;25.04;24.65;97468.63;5038606;28;20044;-80
2021/09/03 06:39:39;;;;;;;24.95;6.75;;;;;;;24.97;24.83;97470.75;5054636;28;20044;-81
2021/09/03 06:42:06;;;;;;;26.77;6.57;;;;;;;24.76;24.59;97434.28;5055113;28;20059;-82
2021/09/03 06:44:32;;;;;;;19.65;5.88;;;;;;;24.83;24.97;97453.19;5055051;28;20044;-80
2021/09/03 06:46:58;;;;;;;26.13;6.80;;;;;;;24.90;24.90;97443.69;5021924;28;20104;-81
2021/09/03 06:49:24;;;;;;;24.20;6.40;;;;;;;24.96;24.65;97434.41;5038451;28;20080;-80
2021/09/03 06:51:51;;;;;;;19.40;5.65;;;;;;;24.96;24.71;97431.69;5006228;28;20102;-81
2021/09/03 06:54:17;;;;;;;22.40;5.90;;;;;;;25.19;25.17;97413.28;5005861;28;20040;-81
2021/09/03 06:56:46;;;;;;;28.52;6.18;;;;;;;25.17;23.95;97393.59;5055147;28;20129;-81
2021/09/03 06:59:12;;;;;;;21.42;6.57;;;;;;;25.32;23.90;97390.94;5038449;28;20048;-82
2021/09/03 07:01:39;;;;;;;24.38;6.10;;;;;;;25.31;23.90;97377.53;5039551;28;20631;-80
2021/09/03 07:04:05;;;;;;;25.20;5.53;;;;;;;25.54;23.82;97382.56;5055451;28;20402;-81
2021/09/03 07:06:31;;;;;;;22.48;6.35;;;;;;;25.68;23.77;97383.72;5025129;28;20482;-82
2021/09/03 07:08:57;;;;;;;27.67;5.20;;;;;;;25.81;23.54;97392.56;5058209;28;20040;-81
2021/09/03 07:11:26;;;;;;;27.27;5.63;;;;;;;26.10;23.82;97395.63;5058166;28;20039;-81
2021/09/03 07:13:52;;;;;;;;;;;;;;;26.30;22.88;97392.97;5071841;28;20033;-79
2021/09/03 07:16:18;;;;;;;30.45;6.20;;;;;;;26.35;23.08;97401.16;5071362;28;19965;-80
2021/09/03 07:18:44;;;;;;;23.60;6.05;;;;;;;26.43;22.83;97396.25;5037718;28;20135;-79
2021/09/03 07:21:10;;;;;;;24.80;5.47;;;;;;;26.51;22.91;97401.22;5054688;28;20044;-80
2021/09/03 07:23:36;;;;;;;28.08;6.07;;;;;;;26.30;22.74;97400.34;5054727;28;20135;-80
2021/09/03 07:26:02;;;;;;;25.13;5.78;;;;;;;26.27;22.99;97385.28;5054484;28;20127;-80
2021/09/03 07:28:28;;;;;;;24.98;5.80;;;;;;;26.59;22.83;97400.66;5054776;28;20048;-80
2021/09/03 07:30:54;;;;;;;33.92;5.47;;;;;;;26.79;22.21;97428.09;5037735;28;20360;-81
2021/09/03 07:33:20;;;;;;;17.98;5.60;;;;;;;26.93;22.15;97413.81;5071267;28;20048;-81
2021/09/03 07:35:46;;;;;;;33.63;6.20;;;;;;;27.29;21.99;97437.41;5037723;28;20040;-81
2021/09/03 07:38:16;;;;;;;31.42;6.10;;;;;;;27.02;22.05;97436.88;5038174;28;20044;-81
2021/09/03 07:40:42;;;;;;;20.67;5.57;;;;;;;27.34;21.83;97442.91;5058181;28;20082;-81
2021/09/03 07:43:08;;;;;;;29.55;5.25;;;;;;;27.59;21.71;97443.91;5057976;28;20478;-81
2021/09/03 07:45:37;;;;;;;21.15;5.15;;;;;;;27.57;21.42;97424.19;5074889;28;20433;-82
2021/09/03 07:48:04;;;;;;;29.10;5.68;;;;;;;27.67;21.20;97431.53;5058727;28;20082;-82
2021/09/03 07:50:32;;;;;;;27.17;6.25;;;;;;;27.78;20.95;97446.91;5074868;28;20071;-80
2021/09/03 07:52:59;;;;;;;23.23;5.72;;;;;;;27.78;21.44;97438.66;5075440;28;20113;-80
2021/09/03 07:55:25;;;;;;;21.70;6.07;;;;;;;27.88;21.15;97440.56;5038143;28;20045;-82
2021/09/03 07:57:51;;;;;;;38.40;6.38;;;;;;;28.07;21.15;97438.81;5065148;28;20056;-78
2021/09/03 08:00:17;;;;;;;29.05;6.07;;;;;;;28.06;20.56;97421.53;5072493;28;20056;-81
2021/09/03 08:02:43;;;;;;;26.00;6.25;;;;;;;28.05;20.56;97421.78;5037938;28;20403;-81
2021/09/03 08:05:11;;;;;;;37.25;5.95;;;;;;;27.88;20.55;97407.63;5040674;28;20787;-79
2021/09/03 08:07:41;;;;;;;31.30;5.20;;;;;;;27.82;20.61;97424.09;5041743;28;20047;-78
2021/09/03 08:10:08;;;;;;;30.70;6.28;;;;;;;27.77;20.90;97434.28;5026630;28;20044;-80
2021/09/03 08:12:34;;;;;;;32.80;6.63;;;;;;;27.79;20.58;97432.06;5074315;28;20044;-76
2021/09/03 08:15:00;;;;;;;40.45;5.88;;;;;;;27.70;20.34;97434.53;5057913;28;20047;-77
2021/09/03 08:17:27;;;;;;;30.10;5.50;;;;;;;27.60;20.57;97401.63;5040753;28;20033;-76
2021/09/03 08:19:53;;;;;;;39.83;5.60;;;;;;;27.51;20.84;97409.63;5058346;28;20036;-77
2021/09/03 08:22:19;;;;;;;35.70;5.95;;;;;;;27.45;20.74;97412.66;5041259;28;20155;-75
2021/09/03 08:24:45;;;;;;;28.60;5.75;;;;;;;27.31;20.83;97401.47;5041073;28;20044;-75
2021/09/03 08:27:11;;;;;;;32.00;5.88;;;;;;;27.06;21.09;97396.81;5040622;28;20047;-74
2021/09/03 08:29:37;;;;;;;36.42;6.22;;;;;;;27.08;21.09;97411.06;5041287;28;20045;-76
2021/09/03 08:32:03;;;;;;;37.25;6.10;;;;;;;27.02;21.13;97401.22;5024215;28;20040;-75
2021/09/03 08:34:29;;;;;;;53.00;6.63;;;;;;;27.14;21.13;97426.44;5057776;28;20495;-74
2021/09/03 08:36:55;;;;;;;54.88;6.88;;;;;;;27.28;20.37;97404.78;5057892;28;20045;-77
2021/09/03 08:39:21;;;;;;;68.50;7.32;;;;;;;27.30;20.24;97408.84;5042248;28;20083;-76
2021/09/03 08:41:47;;;;;;;103.43;8.93;;;;;;;27.20;20.05;97392.44;5043863;28;20121;-75
2021/09/03 08:44:14;;;;;;;64.97;7.75;;;;;;;27.25;19.98;97403.38;5058188;28;20052;-77
2021/09/03 08:46:41;;;;;;;56.80;6.20;;;;;;;27.13;19.90;97402.06;5043687;28;20037;-75
2021/09/03 08:49:07;;;;;;;43.17;6.25;;;;;;;26.97;20.22;97403.94;5048264;28;20036;-76
2021/09/03 08:51:33;;;;;;;55.00;6.80;;;;;;;26.87;20.59;97419.31;5034505;28;20048;-78
2021/09/03 08:53:59;;;;;;;59.55;6.28;;;;;;;26.80;20.45;97415.22;5017190;28;20041;-77
2021/09/03 08:56:25;;;;;;;67.93;7.00;;;;;;;26.82;20.37;97426.72;5021338;28;20132;-75
2021/09/03 08:58:51;;;;;;;101.68;7.95;;;;;;;26.81;20.36;97423.16;5051402;28;20538;-78
2021/09/03 09:01:18;;;;;;;69.80;7.00;;;;;;;26.79;20.39;97424.53;5058660;28;20041;-78
2021/09/03 09:03:45;;;;;;;63.85;7.50;;;;;;;26.86;20.33;97431.38;5023989;28;20037;-79
2021/09/03 09:06:18;;;;;;;56.17;6.60;;;;;;;26.82;20.38;97430.28;5023368;28;20044;-78
2021/09/03 09:08:43;;;;;;;41.22;6.22;;;;;;;26.84;20.33;97403.41;5057108;28;20177;-76
2021/09/03 09:11:13;;;;;;;62.60;6.03;;;;;;;26.80;20.36;97429.72;5055693;28;20041;-76
2021/09/03 09:13:40;;;;;;;42.03;5.97;;;;;;;26.70;20.54;97431.66;5039900;28;20044;-76
2021/09/03 09:16:17;;;;;;;42.25;7.35;;;;;;;26.74;20.38;97425.38;5039802;28;20135;-76
2021/09/03 09:18:51;;;;;;;35.03;5.68;;;;;;;26.85;20.51;97413.31;5074357;28;20415;-77
2021/09/03 09:21:26;;;;;;;49.92;6.50;;;;;;;26.99;20.38;97420.97;5022810;28;20101;-77
2021/09/03 09:24:09;;;;;;;58.35;5.22;;;;;;;27.04;20.35;97430.00;5040111;28;20115;-77
2021/09/03 09:26:45;;;;;;;35.72;5.60;;;;;;;27.19;20.22;97426.44;5042617;28;20063;-76
2021/09/03 09:29:19;;;;;;;80.65;7.25;;;;;;;27.23;20.26;97427.56;5056175;28;20071;-78
2021/09/03 09:31:47;;;;;;;50.35;6.93;;;;;;;27.41;20.06;97420.63;5056568;28;20126;-76
2021/09/03 09:34:25;;;;;;;45.13;5.97;;;;;;;27.70;19.94;97445.53;5055936;28;20127;-75
2021/09/03 09:36:52;;;;;;;83.63;6.80;;;;;;;27.41;19.76;97397.88;5072032;28;20040;-76
2021/09/03 09:39:19;;;;;;;134.63;9.80;;;;;;;27.55;19.72;97416.22;5039278;28;20043;-77
2021/09/03 09:41:45;;;;;;;71.05;7.68;;;;;;;27.50;19.85;97391.53;5039459;28;20577;-76
2021/09/03 09:44:11;;;;;;;73.47;8.60;;;;;;;27.70;19.75;97407.09;5039057;28;20408;-76
2021/09/03 09:46:38;;;;;;;59.17;6.03;;;;;;;27.70;19.73;97418.06;5038779;28;20040;-77
2021/09/03 09:49:09;;;;;;;75.43;6.60;;;;;;;27.64;19.34;97399.97;5038852;28;20040;-76
2021/09/03 09:51:50;;;;;;;93.07;8.20;;;;;;;27.65;19.20;97415.38;5054910;28;20055;-76
2021/09/03 09:54:22;;;;;;;102.00;7.80;;;;;;;27.60;18.93;97445.56;5055212;28;20139;-75
2021/09/03 09:56:59;;;;;;;62.92;6.32;;;;;;;27.66;19.07;97425.22;5038576;28;20122;-75
2021/09/03 09:59:27;;;;;;;62.65;6.65;;;;;;;27.78;18.82;97381.84;5039955;28;20096;-76
2021/09/03 10:01:54;;;;;;;52.80;7.47;;;;;;;27.93;18.78;97399.34;5071784;28;20048;-75
2021/09/03 10:04:24;;;;;;;67.53;6.78;;;;;;;27.88;18.56;97391.13;5055529;28;20041;-75
2021/09/03 10:06:52;;;;;;;55.35;6.03;;;;;;;27.90;18.66;97411.69;5038639;28;20087;-76
2021/09/03 10:09:22;;;;;;;47.70;5.70;;;;;;;27.84;18.84;97413.66;5021950;28;20099;-77
2021/09/03 10:11:51;;;;;;;61.58;6.68;;;;;;;27.96;18.59;97418.00;5022643;28;20048;-75
2021/09/03 10:14:23;;;;;;;51.30;5.88;;;;;;;27.93;18.68;97408.41;5038435;28;20144;-76
2021/09/03 10:16:49;;;;;;;72.28;6.43;;;;;;;27.79;18.57;97404.63;5038538;28;20052;-76
2021/09/03 10:19:26;;;;;;;53.78;7.40;;;;;;;28.07;18.53;97414.09;5021898;28;20048;-75
2021/09/03 10:21:56;;;;;;;41.65;5.93;;;;;;;28.08;18.33;97399.25;5005276;28;20049;-75
2021/09/03 10:24:26;;;;;;;76.25;7.03;;;;;;;28.17;18.51;97399.47;5038848;28;20044;-76
2021/09/03 10:26:54;;;;;;;47.42;6.35;;;;;;;28.31;18.12;97400.50;5070930;28;20071;-77
2021/09/03 10:29:24;;;;;;;77.38;5.95;;;;;;;28.28;18.03;97415.63;5038426;28;20052;-76
2021/09/03 10:34:41;;;;;;;91.53;7.50;;;;;;;27.84;18.77;97412.84;5053991;28;20105;-74
2021/09/03 10:37:16;;;;;;;54.22;6.88;;;;;;;27.92;18.92;97404.00;5054414;28;20044;-79
2021/09/03 10:39:43;;;;;;;71.85;7.57;;;;;;;27.86;18.93;97412.56;5071539;28;20170;-83
2021/09/03 10:42:09;;;;;;;61.20;7.05;;;;;;;27.93;18.59;97416.63;5055116;28;20355;-81
2021/09/03 10:45:17;;;;;;;61.35;7.63;;;;;;;28.25;18.64;97421.69;5054639;28;20048;-81
2021/09/03 10:48:11;;;;;;;47.00;6.82;;;;;;;28.26;18.47;97415.09;5054604;28;20404;-81
2021/09/03 10:50:55;;;;;;;65.75;8.00;;;;;;;28.20;18.80;97415.41;5057179;28;20101;-82
2021/09/03 10:53:29;;;;;;;59.72;8.30;;;;;;;27.95;18.69;97410.88;5039103;28;20097;-83
2021/09/03 10:55:57;;;;;;;74.38;8.57;;;;;;;27.75;18.96;97426.31;5038733;28;20041;-84
2021/09/03 10:58:42;;;;;;;;;;;;;;;27.48;19.12;97432.13;5055774;28;20044;-81
2021/09/03 11:01:14;;;;;;;90.68;8.60;;;;;;;27.17;19.62;97427.84;5071448;28;19921;-83
2021/09/03 11:03:47;;;;;;;69.18;8.43;;;;;;;26.98;19.47;97406.44;5059039;28;20063;-82
2021/09/03 11:06:26;;;;;;;60.83;7.72;;;;;;;26.86;19.44;97417.69;5079400;28;20136;-83
2021/09/03 11:08:59;;;;;;;56.00;6.72;;;;;;;26.83;19.69;97420.97;5071554;28;20490;-83
2021/09/03 11:11:30;;;;;;;53.42;6.55;;;;;;;26.83;19.76;97420.97;5087740;28;20535;-82
2021/09/03 11:14:00;;;;;;;43.45;6.55;;;;;;;26.96;19.98;97443.44;5037810;28;20045;-82
2021/09/03 11:16:39;;;;;;;43.88;6.28;;;;;;;26.84;20.05;97452.75;5070807;28;20055;-79
2021/09/03 11:19:12;;;;;;;60.63;6.82;;;;;;;26.82;21.89;97446.75;5070553;28;20040;-79
2021/09/03 11:21:53;;;;;;;40.78;6.50;;;;;;;26.35;27.74;97485.28;5054524;28;20048;-84
2021/09/03 11:24:21;;;;;;;53.50;6.53;;;;;;;25.75;32.25;97503.88;5054730;28;20036;-83
2021/09/03 11:26:48;;;;;;;27.13;6.15;;;;;;;24.90;35.02;97492.88;5071142;28;20040;-81
2021/09/03 11:29:18;;;;;;;26.15;6.45;;;;;;;24.74;36.66;97488.34;5054534;28;20044;-83
2021/09/03 11:31:59;;;;;;;42.08;6.28;;;;;;;24.51;36.34;97478.56;5087554;28;20047;-82